Latest Weather Observations for Sheoaks

IDV60801

Issued at 9:42 pm EDT Saturday 23 February 2019 (issued every 10 minutes, with the page automatically refreshed every 10 minutes)

About weather observations | Map of weather stations | Latest weather observations for VIC | Other Formats
Station Details ID: 087168 Name: SHEOAKS Lat: -37.91 Lon: 144.13 Height: 236.7 m
Data from the previous 72 hours. | See also: Recent months at Sheoaks
Date/Time
EDT
Temp
°C
App
Temp
°C
Dew
Point
°C
Rel
Hum
%
Delta-T
°C
Wind Press
QNH
hPa
Press
MSL
hPa
Rain since
9am
mm
Dir  Spd
km/h
Gust
km/h
Spd
kts
Gust
kts
23/09:30pm 16.7 16.2 12.7 77 2.2 SSE 7 9 4 5 1025.3 1024.6 0.0
23/09:00pm 17.1 16.7 12.4 74 2.6 SSE 6 9 3 5 1025.1 1024.4 0.0
23/08:30pm 17.7 17.1 12.4 71 3.0 SE 7 11 4 6 1024.9 1024.2 0.0
23/08:00pm 18.4 16.7 12.4 68 3.4 SSE 13 17 7 9 1024.6 1024.0 0.0
23/07:30pm 19.6 17.9 12.6 64 4.0 SE 13 20 7 11 1024.6 1024.0 0.0
23/07:00pm 20.3 17.4 12.3 60 4.5 SE 19 28 10 15 1024.4 1023.8 0.0
23/06:30pm 21.8 18.7 12.1 54 5.5 SE 20 28 11 15 1024.3 1023.7 0.0
23/06:00pm 22.6 19.2 11.4 49 6.3 SE 20 30 11 16 1024.3 1023.7 0.0
23/05:30pm 23.0 19.6 11.4 48 6.6 ESE 20 32 11 17 1024.3 1023.7 0.0
23/05:00pm 22.5 19.0 10.9 48 6.5 ESE 20 30 11 16 1024.4 1023.8 0.0
23/04:30pm 23.2 19.4 11.3 47 6.7 SE 22 32 12 17 1024.4 1023.8 0.0
23/04:00pm 23.9 20.3 10.6 43 7.4 ESE 20 33 11 18 1024.4 1023.8 0.0
23/03:30pm 23.6 19.9 10.3 43 7.4 ESE 20 30 11 16 1024.5 1023.9 0.0
23/03:00pm 23.7 20.1 10.4 43 7.4 SE 20 32 11 17 1024.9 1024.2 0.0
23/02:30pm 22.7 18.5 9.8 44 7.1 ESE 22 30 12 16 1025.2 1024.5 0.0
23/02:00pm 22.7 18.5 9.8 44 7.0 SE 22 32 12 17 1025.2 1024.5 0.0
23/01:30pm 21.8 18.0 9.7 46 6.6 SE 20 30 11 16 1025.2 1024.5 0.0
23/01:00pm 21.2 17.5 10.1 49 6.0 SE 20 32 11 17 1025.3 1024.6 0.0
23/12:30pm 20.9 17.1 9.8 49 6.0 SE 20 28 11 15 1025.8 1025.1 0.0
23/12:00pm 20.2 16.5 9.5 50 5.7 SE 19 26 10 14 1026.1 1025.4 0.0
23/11:30am 19.2 16.3 9.7 54 5.1 ESE 15 24 8 13 1026.2 1025.5 0.0
23/11:00am 18.4 16.1 10.3 59 4.4 SE 13 24 7 13 1026.1 1025.4 0.0
23/10:30am 17.7 15.7 10.1 61 4.1 ESE 11 20 6 11 1026.2 1025.5 0.0
23/10:00am 16.5 13.7 9.9 65 3.5 SE 15 24 8 13 1026.3 1025.6 0.0
23/09:30am 16.3 13.6 10.2 67 3.3 ESE 15 20 8 11 1026.3 1025.6 0.0
23/09:00am 15.3 13.2 9.9 70 2.8 SE 11 17 6 9 1026.4 1025.7 0.0
23/08:30am 14.8 11.9 9.6 71 2.7 SE 15 20 8 11 1026.3 1025.6 0.0
23/08:00am 14.6 12.9 10.0 74 2.4 SE 9 15 5 8 1025.9 1025.2 0.0
23/07:30am 14.4 12.4 10.0 75 2.3 SE 11 19 6 10 1025.6 1024.9 0.0
23/07:00am 14.3 11.9 10.1 76 2.2 SE 13 19 7 10 1025.3 1024.6 0.0
23/06:30am 14.6 12.3 10.4 76 2.2 ESE 13 19 7 10 1025.0 1024.3 0.0
23/06:00am 14.4 11.7 10.2 76 2.2 ESE 15 20 8 11 1024.7 1024.1 0.0
23/05:30am 14.3 11.1 10.1 76 2.2 SE 17 20 9 11 1024.7 1024.1 0.0
23/05:00am 14.4 11.9 9.8 74 2.4 SE 13 22 7 12 1024.5 1023.9 0.0
23/04:30am 14.5 11.3 9.9 74 2.4 SE 17 24 9 13 1024.3 1023.7 0.0
23/04:00am 14.8 12.1 10.2 74 2.4 SE 15 20 8 11 1024.3 1023.7 0.0
23/03:30am 15.1 12.4 10.3 73 2.5 SE 15 22 8 12 1024.4 1023.8 0.0
23/03:00am 14.9 13.3 10.1 73 2.5 SSE 9 15 5 8 1024.4 1023.8 0.0
23/02:30am 14.8 12.8 10.0 73 2.5 SE 11 19 6 10 1024.6 1024.0 0.0
23/02:00am 14.8 12.4 10.0 73 2.5 SE 13 19 7 10 1024.9 1024.2 0.0
23/01:30am 14.8 12.1 10.2 74 2.4 SE 15 20 8 11 1025.1 1024.4 0.0
23/01:00am 15.0 13.1 10.4 74 2.4 SE 11 19 6 10 1025.2 1024.5 0.0
23/12:30am 14.9 12.9 10.3 74 2.4 ESE 11 17 6 9 1025.3 1024.6 0.0
23/12:00am 14.7 12.4 10.3 75 2.3 SE 13 20 7 11 1025.5 1024.8 0.0
 
Date/Time
EDT
Temp
°C
App
Temp
°C
Dew
Point
°C
Rel
Hum
%
Delta-T
°C
Wind Press
QNH
hPa
Press
MSL
hPa
Rain since
9am
mm
Dir  Spd
km/h
Gust
km/h
Spd
kts
Gust
kts
22/11:30pm 14.8 12.9 10.6 76 2.2 SE 11 17 6 9 1025.6 1024.9 0.0
22/11:00pm 14.6 13.1 10.6 77 2.1 SE 9 15 5 8 1025.7 1025.0 0.0
22/10:30pm 14.2 12.6 10.2 77 2.1 SE 9 13 5 7 1025.6 1024.9 0.0
22/10:00pm 13.9 12.3 10.1 78 2.0 SE 9 13 5 7 1025.6 1024.9 0.0
22/09:30pm 13.8 11.7 9.8 77 2.1 SE 11 15 6 8 1025.3 1024.6 0.0
22/09:00pm 14.2 11.7 9.8 75 2.3 SE 13 19 7 10 1025.1 1024.4 0.0
22/08:30pm 14.7 11.9 9.9 73 2.5 SE 15 20 8 11 1024.9 1024.2 0.0
22/08:00pm 15.5 12.2 9.6 68 3.1 SE 17 24 9 13 1024.7 1024.1 0.0
22/07:30pm 16.5 12.9 9.9 65 3.5 SE 19 26 10 14 1024.3 1023.7 0.0
22/07:00pm 17.6 13.9 10.0 61 4.1 SE 20 30 11 16 1024.3 1023.7 0.0
22/06:30pm 18.5 14.6 9.6 56 4.8 SE 20 28 11 15 1024.1 1023.5 0.0
22/06:00pm 19.3 15.6 9.5 53 5.2 SE 19 28 10 15 1023.9 1023.2 0.0
22/05:30pm 20.2 16.9 9.7 51 5.7 ESE 17 26 9 14 1023.8 1023.1 0.0
22/05:00pm 20.9 17.4 10.1 50 5.9 ESE 19 30 10 16 1023.5 1022.8 0.0
22/04:30pm 20.9 17.0 9.5 48 6.2 SE 20 30 11 16 1023.6 1022.9 0.0
22/04:00pm 21.2 16.5 9.4 47 6.3 ESE 24 32 13 17 1023.6 1022.9 0.0
22/03:30pm 21.6 17.7 9.5 46 6.6 ESE 20 30 11 16 1023.7 1023.0 0.0
22/03:00pm 22.2 18.6 9.7 45 6.8 SE 19 28 10 15 1023.8 1023.1 0.0
22/02:30pm 21.8 18.4 9.3 45 6.8 SE 17 28 9 15 1024.0 1023.4 0.0
22/02:00pm 21.6 18.5 8.8 44 6.8 ESE 15 28 8 15 1024.0 1023.4 0.0
22/01:30pm 21.6 18.6 9.2 45 6.7 ESE 15 22 8 12 1024.3 1023.7 0.0
22/01:00pm 20.8 18.1 8.8 46 6.4 SE 13 22 7 12 1024.4 1023.8 0.0
22/12:30pm 19.4 16.6 8.7 50 5.6 SE 13 22 7 12 1024.7 1024.1 0.0
22/12:00pm 18.9 15.3 8.3 50 5.5 SE 17 24 9 13 1024.7 1024.1 0.0
22/11:30am 18.9 16.5 8.8 52 5.3 ESE 11 19 6 10 1024.9 1024.2 0.0
22/11:00am 18.4 15.6 8.7 53 5.1 ESE 13 22 7 12 1024.9 1024.2 0.0
22/10:30am 17.9 15.2 9.0 56 4.7 ESE 13 20 7 11 1024.7 1024.1 0.0
22/10:00am 17.2 14.5 9.1 59 4.2 SE 13 22 7 12 1024.6 1024.0 0.0
22/09:30am 16.4 13.6 8.6 60 4.0 SE 13 19 7 10 1024.6 1024.0 0.0
22/09:00am 15.5 13.1 8.7 64 3.5 ESE 11 17 6 9 1024.4 1023.8 0.0
22/08:30am 14.8 12.4 8.7 67 3.1 ESE 11 15 6 8 1024.3 1023.7 0.0
22/08:00am 14.6 12.2 8.8 68 3.0 SE 11 13 6 7 1023.9 1023.2 0.0
22/07:30am 14.4 12.0 8.8 69 2.9 SE 11 17 6 9 1023.6 1022.9 0.0
22/07:00am 14.5 12.2 8.9 69 2.9 SE 11 15 6 8 1023.4 1022.7 0.0
22/06:30am 14.4 12.8 8.8 69 2.9 SE 7 11 4 6 1023.0 1022.3 0.0
22/06:00am 14.4 12.0 8.6 68 2.9 SE 11 15 6 8 1022.9 1022.2 0.0
22/05:30am 14.4 12.4 8.8 69 2.9 SE 9 17 5 9 1022.8 1022.1 0.0
22/05:00am 14.3 12.3 8.7 69 2.9 SSE 9 17 5 9 1022.7 1022.0 0.0
22/04:30am 14.4 12.0 8.8 69 2.9 ESE 11 15 6 8 1022.7 1022.0 0.0
22/04:00am 14.3 12.4 8.9 70 2.8 SSE 9 13 5 7 1022.7 1022.0 0.0
22/03:30am 14.4 12.5 9.0 70 2.8 SE 9 15 5 8 1022.7 1022.0 0.0
22/03:00am 14.3 12.1 9.3 72 2.6 SE 11 17 6 9 1022.7 1022.0 0.0
22/02:30am 14.4 12.7 10.0 75 2.3 SE 9 13 5 7 1023.0 1022.3 0.0
22/02:00am 14.4 13.1 10.0 75 2.3 SSE 7 11 4 6 1023.0 1022.3 0.0
22/01:30am 14.3 13.2 10.1 76 2.2 SSE 6 9 3 5 1023.2 1022.5 0.0
22/01:00am 14.3 13.0 10.1 76 2.2 SSE 7 9 4 5 1023.4 1022.7 0.0
22/12:30am 14.2 12.9 10.0 76 2.2 SSE 7 13 4 7 1023.2 1022.5 0.0
22/12:00am 14.2 12.9 9.8 75 2.3 SSE 7 11 4 6 1023.1 1022.4 0.0
 
Date/Time
EDT
Temp
°C
App
Temp
°C
Dew
Point
°C
Rel
Hum
%
Delta-T
°C
Wind Press
QNH
hPa
Press
MSL
hPa
Rain since
9am
mm
Dir  Spd
km/h
Gust
km/h
Spd
kts
Gust
kts
21/11:30pm 14.2 13.0 9.4 73 2.5 SSE 6 9 3 5 1023.2 1022.5 0.0
21/11:00pm 13.9 12.9 8.9 72 2.5 SSE 4 7 2 4 1023.3 1022.6 0.0
21/10:30pm 13.4 12.0 8.9 74 2.3 SSE 6 7 3 4 1023.3 1022.6 0.0
21/10:00pm 13.5 12.0 8.4 71 2.6 SSE 6 9 3 5 1023.2 1022.5 0.0
21/09:30pm 13.8 12.0 8.0 68 2.9 SE 7 11 4 6 1023.0 1022.3 0.0
21/09:00pm 14.5 12.1 8.5 67 3.0 SE 11 15 6 8 1022.7 1022.0 0.0
21/08:30pm 15.2 12.0 8.4 64 3.5 SE 15 20 8 11 1022.4 1021.7 0.0
21/08:00pm 16.0 12.9 8.7 62 3.8 SE 15 20 8 11 1022.2 1021.5 0.0
21/07:30pm 16.8 13.0 9.2 61 4.0 ESE 19 28 10 15 1021.8 1021.1 0.0
21/07:00pm 17.8 14.4 9.2 57 4.5 ESE 17 24 9 13 1021.5 1020.8 0.0
21/06:30pm 18.6 14.8 9.1 54 5.0 ESE 19 24 10 13 1021.5 1020.8 0.0
21/06:00pm 19.1 15.2 8.7 51 5.5 SE 19 28 10 15 1021.4 1020.7 0.0
21/05:30pm 19.3 14.8 8.6 50 5.6 SE 22 33 12 18 1021.1 1020.4 0.0
21/05:00pm 19.8 15.3 8.5 48 5.9 ESE 22 35 12 19 1021.0 1020.3 0.0
21/04:30pm 21.3 17.8 8.6 44 6.8 ESE 17 26 9 14 1020.7 1020.0 0.0
21/04:00pm 21.2 18.4 8.5 44 6.7 ESE 13 26 7 14 1020.6 1019.9 0.0
21/03:30pm 20.8 17.9 8.1 44 6.7 ESE 13 22 7 12 1020.8 1020.1 0.0
21/03:00pm 21.6 17.9 7.8 41 7.2 SE 17 26 9 14 1021.1 1020.4 0.0
21/02:30pm 21.0 18.4 7.6 42 7.0 SE 11 24 6 13 1021.1 1020.4 0.0
21/02:00pm 20.2 17.0 6.9 42 6.8 S 13 20 7 11 1021.3 1020.6 0.0
21/01:30pm 20.6 18.0 7.9 44 6.7 SSW 11 22 6 12 1021.4 1020.7 0.0
21/01:00pm 19.6 16.2 7.7 46 6.2 S 15 24 8 13 1021.5 1020.8 0.0
21/12:30pm 19.2 15.7 7.3 46 6.1 S 15 22 8 12 1021.6 1020.9 0.0
21/12:00pm 18.3 15.9 6.8 47 5.8 SW 9 19 5 10 1021.7 1021.0 0.0
21/11:30am 17.8 15.4 7.0 49 5.5 S 9 19 5 10 1021.7 1021.0 0.0
21/11:00am 16.4 13.6 7.1 54 4.7 SW 11 17 6 9 1021.7 1021.0 0.0
21/10:30am 16.1 13.0 7.3 56 4.4 SSW 13 24 7 13 1021.5 1020.8 0.0
21/10:00am 15.4 11.9 7.2 58 4.1 SSW 15 22 8 12 1021.4 1020.7 0.0
21/09:30am 14.6 11.5 7.2 61 3.7 SSW 13 19 7 10 1021.0 1020.3 0.0
21/09:00am 14.5 12.5 8.7 68 3.0 SW 9 15 5 8 1020.7 1020.0 0.0
21/08:30am 13.8 12.2 8.6 71 2.6 SW 7 11 4 6 1020.3 1019.7 0.0
21/08:00am 13.3 12.3 9.0 75 2.2 WSW 4 7 2 4 1019.9 1019.2 0.0
21/07:30am 12.8 11.4 8.9 77 2.0 W 6 9 3 5 1019.5 1018.8 0.0
21/07:00am 12.5 11.1 8.8 78 1.9 W 6 7 3 4 1019.0 1018.3 0.0
21/06:30am 12.5 10.9 8.8 78 1.9 W 7 11 4 6 1018.8 1018.1 0.0
21/06:00am 12.4 11.8 9.1 80 1.7 W 2 6 1 3 1018.6 1017.9 0.0
21/05:30am 12.1 10.7 9.7 85 1.2 W 7 11 4 6 1018.4 1017.7 0.0
21/05:00am 11.8 10.2 10.2 90 0.8 W 9 13 5 7 1018.3 1017.6 0.0
21/04:30am 9.8 8.3 8.4 91 0.7 NW 6 7 3 4 1018.1 1017.4 0.0
21/04:00am 9.1 7.2 7.5 90 0.8 WNW 7 9 4 5 1018.0 1017.3 0.0
21/03:30am 9.4 7.7 7.5 88 0.9 WNW 6 9 3 5 1018.1 1017.4 0.0
21/03:00am 10.2 8.6 8.1 87 1.0 NW 6 6 3 3 1018.0 1017.3 0.0
21/02:30am 11.6 10.1 9.2 85 1.2 WNW 7 11 4 6 1018.1 1017.4 0.0
21/02:00am 12.0 10.6 9.4 84 1.3 W 7 9 4 5 1018.2 1017.5 0.0
21/01:30am 12.6 11.9 10.0 84 1.4 WSW 4 7 2 4 1018.4 1017.7 0.0
21/01:00am 13.1 11.5 10.3 83 1.5 SW 9 17 5 9 1018.3 1017.6 0.0
21/12:30am 13.0 11.5 10.5 85 1.3 WSW 9 15 5 8 1018.4 1017.7 0.0
21/12:00am 12.2 11.0 9.6 84 1.3 WNW 6 11 3 6 1018.3 1017.6 0.0
 
Date/Time
EDT
Temp
°C
App
Temp
°C
Dew
Point
°C
Rel
Hum
%
Delta-T
°C
Wind Press
QNH
hPa
Press
MSL
hPa
Rain since
9am
mm
Dir  Spd
km/h
Gust
km/h
Spd
kts
Gust
kts
20/11:30pm 12.8 11.6 9.6 81 1.7 WNW 6 9 3 5 1018.2 1017.5 0.0
20/11:00pm 13.4 12.1 9.8 79 1.9 W 7 9 4 5 1018.1 1017.4 0.0
20/10:30pm 14.0 12.3 9.8 76 2.2 WSW 9 17 5 9 1017.9 1017.2 0.0
20/10:00pm 14.5 12.4 9.7 73 2.5 WSW 11 17 6 9 1017.7 1017.0 0.0

Other formats

Comma delimited format used in spreadsheet applications
http://www.bom.gov.au/fwo/IDV60801/IDV60801.94863.axf

JavaScript Object Notation format (JSON) in row-major order
http://www.bom.gov.au/fwo/IDV60801/IDV60801.94863.json

Data quality

Most of these data are generated automatically and are frequently updated. Quality checks on data are not normally performed. It is possible for incorrect values to appear. Refer to information at About Latest Weather Observations and please check the disclaimer before using these data.